Time;durP1;ratioP1;P1;durP2;ratioP2;P2;SDS_P1;SDS_P2;PMS_P1;PMS_P2;Temp;Humidity;BMP_temperature;BMP_pressure;BME280_temperature;BME280_humidity;BME280_pressure;Samples;Min_cycle;Max_cycle;Signal;HPM_P1;HPM_P2
2022/07/21 00:02:22;;;;;;;1999.90;999.90;;;19.00;99.90;;;;;;5056385;28;20060;-71
2022/07/21 00:04:48;;;;;;;1999.90;999.90;;;18.90;99.90;;;;;;5054709;28;20025;-73
2022/07/21 00:07:13;;;;;;;1999.90;999.90;;;18.90;99.90;;;;;;5054838;28;20391;-72
2022/07/21 00:09:39;;;;;;;1999.90;999.90;;;18.90;99.90;;;;;;5063650;28;20054;-72
2022/07/21 00:12:05;;;;;;;1999.90;999.90;;;18.90;99.90;;;;;;5054705;28;20484;-72
2022/07/21 00:14:31;;;;;;;1999.90;999.90;;;18.90;99.90;;;;;;5055005;28;20088;-72
2022/07/21 00:16:57;;;;;;;1999.90;999.90;;;18.90;99.90;;;;;;5054115;28;20033;-73
2022/07/21 00:19:23;;;;;;;1999.90;999.90;;;18.90;99.90;;;;;;5054235;28;20075;-73
2022/07/21 00:21:49;;;;;;;1999.90;999.90;;;18.90;99.90;;;;;;5054634;28;20032;-73
2022/07/21 00:24:14;;;;;;;1999.90;999.90;;;18.80;99.90;;;;;;5054243;28;20111;-73
2022/07/21 00:26:41;;;;;;;1999.90;999.90;;;18.80;99.90;;;;;;5054530;28;20399;-71
2022/07/21 00:29:07;;;;;;;1999.90;999.90;;;18.80;99.90;;;;;;5053252;28;20119;-71
2022/07/21 00:31:33;;;;;;;1999.90;999.90;;;18.90;99.90;;;;;;5054476;28;20080;-74
2022/07/21 00:33:59;;;;;;;1999.90;999.90;;;18.90;99.90;;;;;;5054034;28;20497;-73
2022/07/21 00:36:24;;;;;;;1999.90;999.90;;;18.90;99.90;;;;;;5054234;28;20044;-72
2022/07/21 00:38:50;;;;;;;1999.90;999.90;;;19.00;99.90;;;;;;5047446;28;20518;-71
2022/07/21 00:41:16;;;;;;;1999.90;999.90;;;19.00;99.90;;;;;;5054154;28;20025;-71
2022/07/21 00:43:41;;;;;;;1999.90;999.90;;;19.00;99.90;;;;;;5054249;28;20033;-71
2022/07/21 00:46:07;;;;;;;1999.90;999.90;;;19.10;99.90;;;;;;5054505;28;20029;-72
2022/07/21 00:48:33;;;;;;;1999.90;999.90;;;19.10;99.90;;;;;;5054182;28;20511;-73
2022/07/21 00:50:59;;;;;;;1999.90;999.90;;;19.10;99.90;;;;;;5053465;28;20029;-71
2022/07/21 00:53:25;;;;;;;1999.90;999.90;;;19.10;99.90;;;;;;5053539;28;20018;-72
2022/07/21 00:55:50;;;;;;;1999.90;999.90;;;19.10;99.90;;;;;;5053981;28;20035;-71
2022/07/21 00:58:16;;;;;;;1999.90;999.90;;;19.10;99.90;;;;;;5053850;28;20108;-73
2022/07/21 01:00:42;;;;;;;1999.90;999.90;;;19.20;99.90;;;;;;5054354;28;20064;-73
2022/07/21 01:03:08;;;;;;;1999.90;999.90;;;19.20;99.90;;;;;;5056331;28;20132;-73
2022/07/21 01:05:34;;;;;;;1999.90;999.90;;;19.20;99.90;;;;;;5053774;28;20099;-73
2022/07/21 01:08:02;;;;;;;1999.90;999.90;;;19.20;99.90;;;;;;5052568;28;20021;-71
2022/07/21 01:10:29;;;;;;;1999.90;999.90;;;19.20;99.90;;;;;;5053305;28;20031;-73
2022/07/21 01:12:56;;;;;;;1999.90;999.90;;;19.30;99.90;;;;;;5053480;28;20518;-71
2022/07/21 01:15:23;;;;;;;1999.90;999.90;;;19.20;99.90;;;;;;5053103;28;20138;-74
2022/07/21 01:17:49;;;;;;;1999.90;999.90;;;19.20;99.90;;;;;;5053331;28;20025;-71
2022/07/21 01:20:17;;;;;;;1999.90;999.90;;;19.20;99.90;;;;;;5053351;28;20037;-73
2022/07/21 01:22:46;;;;;;;1999.90;999.90;;;19.20;99.90;;;;;;5053166;28;20040;-73
2022/07/21 01:25:12;;;;;;;1999.90;999.90;;;19.10;99.90;;;;;;5053347;28;20044;-73
2022/07/21 01:27:38;;;;;;;1999.90;999.90;;;19.20;99.90;;;;;;5052953;28;20399;-73
2022/07/21 01:30:09;;;;;;;1999.90;999.90;;;19.10;99.90;;;;;;5052544;28;20115;-71
2022/07/21 01:32:37;;;;;;;1999.90;999.90;;;19.10;99.90;;;;;;5053229;28;20488;-73
2022/07/21 01:35:04;;;;;;;1999.90;999.90;;;19.10;99.90;;;;;;5053008;28;20036;-73
2022/07/21 01:37:31;;;;;;;1999.90;999.90;;;19.10;99.90;;;;;;5052722;28;20017;-71
2022/07/21 01:42:40;;;;;;;1999.90;999.90;;;19.10;99.90;;;;;;5060772;28;20036;-74
2022/07/21 01:45:07;;;;;;;1999.90;999.90;;;19.10;99.90;;;;;;5060261;28;20407;-72
2022/07/21 01:47:33;;;;;;;1999.90;999.90;;;19.10;99.90;;;;;;5053282;28;20396;-72
2022/07/21 01:49:59;;;;;;;1999.90;999.90;;;19.00;99.90;;;;;;5052848;28;20035;-73
2022/07/21 01:52:25;;;;;;;1999.90;999.90;;;19.00;99.90;;;;;;5053067;28;20025;-73
2022/07/21 01:54:50;;;;;;;1999.90;999.90;;;19.00;99.90;;;;;;5034798;28;20033;-73
2022/07/21 01:57:16;;;;;;;1999.90;999.90;;;19.00;99.90;;;;;;5053133;28;20021;-72
2022/07/21 01:59:42;;;;;;;1999.90;999.90;;;19.00;99.90;;;;;;5053082;28;20028;-71
2022/07/21 02:02:09;;;;;;;1999.90;999.90;;;19.10;99.90;;;;;;5053033;28;20156;-73
2022/07/21 02:04:34;;;;;;;1999.90;999.90;;;19.00;99.90;;;;;;5052726;28;20021;-73
2022/07/21 02:07:01;;;;;;;1999.90;999.90;;;19.00;99.90;;;;;;5049184;28;20071;-72
2022/07/21 02:09:27;;;;;;;1999.90;999.90;;;19.00;99.90;;;;;;5052253;28;20029;-73
2022/07/21 02:11:52;;;;;;;1999.90;999.90;;;19.10;99.90;;;;;;5052827;28;20108;-71
2022/07/21 02:14:18;;;;;;;1999.90;999.90;;;19.10;99.90;;;;;;5052696;28;20528;-73
2022/07/21 02:16:44;;;;;;;1999.90;999.90;;;19.00;99.90;;;;;;5052338;28;20369;-73
2022/07/21 02:19:09;;;;;;;1999.90;999.90;;;19.10;99.90;;;;;;5052535;28;20369;-73
2022/07/21 02:21:35;;;;;;;1999.90;999.90;;;19.00;99.90;;;;;;5052252;28;20106;-72
2022/07/21 02:24:01;;;;;;;1999.90;999.90;;;19.10;99.90;;;;;;5052276;28;20060;-71
2022/07/21 02:26:27;;;;;;;1999.90;999.90;;;19.10;99.90;;;;;;5052227;28;20029;-72
2022/07/21 02:28:52;;;;;;;1999.90;999.90;;;19.10;99.90;;;;;;5034555;28;20403;-72
2022/07/21 02:31:18;;;;;;;1999.90;999.90;;;19.10;99.90;;;;;;5051992;28;20045;-73
2022/07/21 02:33:44;;;;;;;1999.90;999.90;;;19.10;99.90;;;;;;5052080;28;20091;-73
2022/07/21 02:36:09;;;;;;;1999.90;999.90;;;19.10;99.90;;;;;;5052471;28;20025;-72
2022/07/21 02:38:35;;;;;;;1999.90;999.90;;;19.10;99.90;;;;;;5046091;28;20033;-73
2022/07/21 02:41:01;;;;;;;1999.90;999.90;;;19.00;99.90;;;;;;5052201;28;20025;-71
2022/07/21 02:43:26;;;;;;;1999.90;999.90;;;19.00;99.90;;;;;;5052155;28;20029;-73
2022/07/21 02:45:52;;;;;;;1999.90;999.90;;;19.00;99.90;;;;;;5052610;28;20029;-73
2022/07/21 02:48:19;;;;;;;1999.90;999.90;;;18.90;99.90;;;;;;5052327;28;20036;-73
2022/07/21 02:50:44;;;;;;;1999.90;999.90;;;18.90;99.90;;;;;;5052240;28;20048;-71
2022/07/21 02:53:14;;;;;;;1999.90;999.90;;;19.00;99.90;;;;;;5052492;28;20060;-71
2022/07/21 02:55:40;;;;;;;1999.90;999.90;;;19.00;99.90;;;;;;5052135;28;20049;-73
2022/07/21 02:58:18;;;;;;;1999.90;999.90;;;19.00;99.90;;;;;;5052218;28;20040;-73
2022/07/21 03:00:48;;;;;;;1999.90;999.90;;;19.00;99.90;;;;;;5052517;28;20500;-72
2022/07/21 03:03:13;;;;;;;1999.90;999.90;;;19.00;99.90;;;;;;5053879;28;20568;-72
2022/07/21 03:05:39;;;;;;;1999.90;999.90;;;19.00;99.90;;;;;;5052372;28;20100;-71
2022/07/21 03:08:06;;;;;;;1999.90;999.90;;;18.90;99.90;;;;;;5051948;28;20500;-73
2022/07/21 03:10:32;;;;;;;1999.90;999.90;;;18.90;99.90;;;;;;5042655;28;20124;-74
2022/07/21 03:12:58;;;;;;;1999.90;999.90;;;18.90;99.90;;;;;;5052219;28;20025;-73
2022/07/21 03:15:23;;;;;;;1999.90;999.90;;;18.90;99.90;;;;;;5052055;28;20484;-73
2022/07/21 03:17:49;;;;;;;1999.90;999.90;;;18.90;99.90;;;;;;5052037;28;20040;-72
2022/07/21 03:20:15;;;;;;;1999.90;999.90;;;18.90;99.90;;;;;;5052012;28;20064;-73
2022/07/21 03:22:41;;;;;;;1999.90;999.90;;;18.80;99.90;;;;;;5051991;28;20036;-73
2022/07/21 03:25:07;;;;;;;1999.90;999.90;;;18.90;99.90;;;;;;5052109;28;20025;-73
2022/07/21 03:27:35;;;;;;;1999.90;999.90;;;18.80;99.90;;;;;;5051532;28;20369;-73
2022/07/21 03:30:04;;;;;;;1999.90;999.90;;;18.80;99.90;;;;;;5051697;28;20420;-71
2022/07/21 03:32:29;;;;;;;1999.90;999.90;;;18.80;99.90;;;;;;5055277;28;20025;-71
2022/07/21 03:34:55;;;;;;;1999.90;999.90;;;18.80;99.90;;;;;;5055600;28;20040;-73
2022/07/21 03:37:21;;;;;;;1999.90;999.90;;;18.90;99.90;;;;;;5055689;28;20028;-74
2022/07/21 03:39:47;;;;;;;1999.90;999.90;;;18.80;99.90;;;;;;5048800;28;20476;-72
2022/07/21 03:42:12;;;;;;;1999.90;999.90;;;18.80;99.90;;;;;;5055292;28;20070;-72
2022/07/21 03:44:38;;;;;;;1999.90;999.90;;;18.80;99.90;;;;;;5055353;28;20092;-72
2022/07/21 03:47:04;;;;;;;1999.90;999.90;;;18.80;99.90;;;;;;5055088;28;20116;-73
2022/07/21 03:49:29;;;;;;;1999.90;999.90;;;18.80;99.90;;;;;;5055381;28;20086;-71
2022/07/21 03:51:55;;;;;;;1999.90;999.90;;;18.90;99.90;;;;;;5055170;28;20033;-73
2022/07/21 03:54:20;;;;;;;1999.90;999.90;;;18.80;99.90;;;;;;5054758;28;20029;-71
2022/07/21 03:56:46;;;;;;;1999.90;999.90;;;18.80;99.90;;;;;;5037153;28;20044;-71
2022/07/21 03:59:12;;;;;;;1999.90;999.90;;;18.80;99.90;;;;;;5055167;28;20039;-71
2022/07/21 04:01:37;;;;;;;1999.90;999.90;;;18.80;99.90;;;;;;5056854;28;20466;-73
2022/07/21 04:04:03;;;;;;;1999.90;999.90;;;18.80;99.90;;;;;;5055188;28;20029;-73
2022/07/21 04:06:29;;;;;;;1999.90;999.90;;;18.80;99.90;;;;;;5054693;28;20040;-73
2022/07/21 04:08:54;;;;;;;1999.90;999.90;;;18.90;99.90;;;;;;5061542;28;20067;-71
2022/07/21 04:11:20;;;;;;;1999.90;999.90;;;18.90;99.90;;;;;;5057386;28;20029;-73
2022/07/21 04:13:45;;;;;;;1999.90;999.90;;;18.90;99.90;;;;;;5054989;28;20075;-73
2022/07/21 04:16:11;;;;;;;1999.90;999.90;;;18.90;99.90;;;;;;5053932;28;20025;-72
2022/07/21 04:18:37;;;;;;;1999.90;999.90;;;18.80;99.90;;;;;;5054748;28;20159;-73
2022/07/21 04:21:03;;;;;;;1999.90;999.90;;;18.80;99.90;;;;;;5054577;28;20028;-71
2022/07/21 04:23:29;;;;;;;1999.90;999.90;;;18.80;99.90;;;;;;5054593;28;20029;-71
2022/07/21 04:25:55;;;;;;;1999.90;999.90;;;18.80;99.90;;;;;;5054285;28;20021;-73
2022/07/21 04:28:20;;;;;;;1999.90;999.90;;;18.90;99.90;;;;;;5054480;28;20376;-73
2022/07/21 04:30:46;;;;;;;1999.90;999.90;;;19.10;99.90;;;;;;5053666;28;20056;-71
2022/07/21 04:33:12;;;;;;;1999.90;999.90;;;19.10;99.90;;;;;;5054343;28;20033;-72
2022/07/21 04:35:37;;;;;;;1999.90;999.90;;;19.20;99.90;;;;;;5054397;28;20021;-73
2022/07/21 04:38:03;;;;;;;1999.90;999.90;;;19.20;99.90;;;;;;5054397;28;20438;-73
2022/07/21 04:40:28;;;;;;;1999.90;999.90;;;19.30;99.90;;;;;;5054066;28;20037;-71
2022/07/21 04:42:54;;;;;;;1999.90;999.90;;;19.20;99.90;;;;;;5053085;28;20503;-71
2022/07/21 04:45:20;;;;;;;1999.90;999.90;;;19.20;99.90;;;;;;5054141;28;20021;-71
2022/07/21 04:47:52;;;;;;;1999.90;999.90;;;19.30;99.90;;;;;;5054151;28;20025;-72
2022/07/21 04:50:19;;;;;;;1999.90;999.90;;;19.30;99.90;;;;;;5051974;28;20021;-73
2022/07/21 04:52:45;;;;;;;1999.90;999.90;;;19.30;99.90;;;;;;5053473;28;20044;-73
2022/07/21 04:55:12;;;;;;;1999.90;999.90;;;19.30;99.90;;;;;;5053796;28;20464;-73
2022/07/21 04:57:43;;;;;;;1999.90;999.90;;;19.30;99.90;;;;;;5054259;28;20021;-73
2022/07/21 05:00:12;;;;;;;1999.90;999.90;;;19.30;99.90;;;;;;5053160;28;20032;-71
2022/07/21 05:02:38;;;;;;;1999.90;999.90;;;19.30;99.90;;;;;;5053675;28;20049;-73
2022/07/21 05:05:05;;;;;;;1999.90;999.90;;;19.30;99.90;;;;;;5053625;28;20485;-73
2022/07/21 05:07:31;;;;;;;1999.90;999.90;;;19.30;99.90;;;;;;5053411;28;20031;-73
2022/07/21 05:09:58;;;;;;;1999.90;999.90;;;19.30;99.90;;;;;;5063152;28;20025;-71
2022/07/21 05:12:24;;;;;;;1999.90;999.90;;;19.30;99.90;;;;;;5053373;28;20017;-71
2022/07/21 05:14:50;;;;;;;1999.90;999.90;;;19.30;99.90;;;;;;5053348;28;20483;-71
2022/07/21 05:17:16;;;;;;;1999.90;999.90;;;19.40;99.90;;;;;;5053451;28;20017;-72
2022/07/21 05:19:43;;;;;;;1999.90;999.90;;;19.40;99.90;;;;;;5053288;28;20480;-74
2022/07/21 05:22:09;;;;;;;1999.90;999.90;;;19.40;99.90;;;;;;5053169;28;20488;-73
2022/07/21 05:24:35;;;;;;;1999.90;999.90;;;19.40;99.90;;;;;;5053080;28;20151;-71
2022/07/21 05:27:00;;;;;;;1999.90;999.90;;;19.50;99.90;;;;;;5052977;28;20104;-71
2022/07/21 05:29:26;;;;;;;1999.90;999.90;;;19.40;99.90;;;;;;5058679;28;20043;-71
2022/07/21 05:31:52;;;;;;;1999.90;999.90;;;19.40;99.90;;;;;;5059991;28;20055;-74
2022/07/21 05:34:17;;;;;;;1999.90;999.90;;;19.40;99.90;;;;;;5066225;28;20107;-74
2022/07/21 05:36:43;;;;;;;1999.90;999.90;;;19.40;99.90;;;;;;5053056;28;20021;-74
2022/07/21 05:39:08;;;;;;;1999.90;999.90;;;19.40;99.90;;;;;;5065471;28;20024;-71
2022/07/21 05:41:34;;;;;;;1999.90;999.90;;;19.50;99.90;;;;;;5060256;28;20442;-72
2022/07/21 05:44:00;;;;;;;1999.90;999.90;;;19.50;99.90;;;;;;5054500;28;20094;-73
2022/07/21 05:46:25;;;;;;;1999.90;999.90;;;19.60;99.90;;;;;;5052461;28;20025;-73
2022/07/21 05:48:53;;;;;;;1999.90;999.90;;;19.70;99.90;;;;;;5052737;28;20028;-74
2022/07/21 05:51:19;;;;;;;1999.90;999.90;;;19.80;99.90;;;;;;5052626;28;20067;-72
2022/07/21 05:53:44;;;;;;;1999.90;999.90;;;19.80;99.90;;;;;;5052117;28;20427;-72
2022/07/21 05:56:10;;;;;;;1999.90;999.90;;;19.80;99.90;;;;;;5052639;28;20025;-71
2022/07/21 05:58:36;;;;;;;1999.90;999.90;;;19.90;99.90;;;;;;5052792;28;20433;-74
2022/07/21 06:01:08;;;;;;;1999.90;999.90;;;20.00;99.90;;;;;;5052740;28;20095;-73
2022/07/21 06:03:38;;;;;;;1999.90;999.90;;;20.00;99.90;;;;;;5052201;28;20029;-73
2022/07/21 06:06:04;;;;;;;1999.90;999.90;;;20.00;99.90;;;;;;5052448;28;20025;-72
2022/07/21 06:08:30;;;;;;;1999.90;999.90;;;20.10;99.90;;;;;;5037753;28;20044;-72
2022/07/21 06:10:56;;;;;;;1999.90;999.90;;;20.20;99.90;;;;;;5057156;28;20051;-73
2022/07/21 06:13:21;;;;;;;1999.90;999.90;;;20.20;99.90;;;;;;5051234;28;20056;-72
2022/07/21 06:15:47;;;;;;;1999.90;999.90;;;20.30;99.90;;;;;;5051913;28;20029;-73
2022/07/21 06:18:13;;;;;;;1999.90;999.90;;;20.50;99.90;;;;;;5051967;28;20074;-71
2022/07/21 06:20:40;;;;;;;1999.90;999.90;;;20.50;99.90;;;;;;5052236;28;20029;-72
2022/07/21 06:23:06;;;;;;;1999.90;999.90;;;20.60;99.90;;;;;;5052082;28;20021;-73
2022/07/21 06:25:31;;;;;;;1999.90;999.90;;;20.70;99.90;;;;;;5052315;28;20039;-73
2022/07/21 06:27:57;;;;;;;1999.90;999.90;;;20.70;99.90;;;;;;5050733;28;20029;-73
2022/07/21 06:30:22;;;;;;;1999.90;999.90;;;20.60;99.90;;;;;;5051863;28;20076;-71
2022/07/21 06:32:48;;;;;;;1999.90;999.90;;;20.60;99.90;;;;;;5051801;28;20108;-72
2022/07/21 06:35:14;;;;;;;1999.90;999.90;;;20.70;99.90;;;;;;5052142;28;20064;-73
2022/07/21 06:37:44;;;;;;;1999.90;999.90;;;20.80;99.90;;;;;;5052196;28;20021;-73
2022/07/21 06:40:11;;;;;;;1999.90;999.90;;;20.90;99.90;;;;;;5045842;28;20083;-72
2022/07/21 06:42:37;;;;;;;1999.90;999.90;;;20.90;99.90;;;;;;5063995;28;20093;-74
2022/07/21 06:45:03;;;;;;;1999.90;999.90;;;20.90;99.90;;;;;;5066016;28;20029;-71
2022/07/21 06:47:28;;;;;;;1999.90;999.90;;;21.00;99.90;;;;;;5052358;28;20451;-71
2022/07/21 06:49:54;;;;;;;1999.90;999.90;;;21.00;99.90;;;;;;5052039;28;20025;-72
2022/07/21 06:52:20;;;;;;;1999.90;999.90;;;20.90;99.90;;;;;;5052007;28;20079;-73
2022/07/21 06:54:46;;;;;;;1999.90;999.90;;;21.00;99.90;;;;;;5051696;28;20029;-72
2022/07/21 06:57:13;;;;;;;1999.90;999.90;;;21.10;99.90;;;;;;5052371;28;20033;-71
2022/07/21 06:59:39;;;;;;;1999.90;999.90;;;21.10;99.90;;;;;;5052353;28;20103;-72
2022/07/21 07:02:05;;;;;;;1999.90;999.90;;;21.00;99.90;;;;;;5051490;28;20063;-74
2022/07/21 07:04:30;;;;;;;1999.90;999.90;;;21.00;99.90;;;;;;5052028;28;20120;-73
2022/07/21 07:06:56;;;;;;;1999.90;999.90;;;21.10;99.90;;;;;;5033388;28;20029;-73
2022/07/21 07:09:22;;;;;;;1999.90;999.90;;;21.30;99.90;;;;;;5057288;28;20112;-72
2022/07/21 07:11:51;;;;;;;1999.90;999.90;;;21.50;99.90;;;;;;5060400;28;20029;-72
2022/07/21 07:14:16;;;;;;;1999.90;999.90;;;21.70;99.90;;;;;;5053799;28;20396;-71
2022/07/21 07:16:42;;;;;;;1999.90;999.90;;;21.60;99.90;;;;;;5054925;28;20027;-74
2022/07/21 07:19:08;;;;;;;1999.90;999.90;;;21.60;99.90;;;;;;5055111;28;20147;-72
2022/07/21 07:21:33;;;;;;;1999.90;999.90;;;21.50;99.90;;;;;;5055347;28;20029;-74
2022/07/21 07:23:59;;;;;;;1999.90;999.90;;;21.50;99.90;;;;;;5054702;28;20055;-72
2022/07/21 07:26:24;;;;;;;1999.90;999.90;;;21.30;99.90;;;;;;5054956;28;20029;-71
2022/07/21 07:28:50;;;;;;;1999.90;999.90;;;21.10;99.90;;;;;;5054765;28;20078;-73
2022/07/21 07:31:16;;;;;;;1999.90;999.90;;;21.00;99.90;;;;;;5055155;28;20496;-74
2022/07/21 07:33:41;;;;;;;1999.90;999.90;;;21.00;99.90;;;;;;5053874;28;20036;-71
2022/07/21 07:36:10;;;;;;;1999.90;999.90;;;20.80;99.90;;;;;;5055006;28;20021;-71
2022/07/21 07:38:36;;;;;;;1999.90;999.90;;;20.80;99.90;;;;;;5054421;28;20541;-71
2022/07/21 07:41:02;;;;;;;1999.90;999.90;;;20.90;99.90;;;;;;5054641;28;20025;-74
2022/07/21 07:43:28;;;;;;;1999.90;999.90;;;21.50;99.90;;;;;;5054645;28;20025;-74
2022/07/21 07:45:53;;;;;;;1999.90;999.90;;;22.40;99.90;;;;;;5054849;28;20024;-72
2022/07/21 07:48:19;;;;;;;1999.90;999.90;;;25.00;99.90;;;;;;5054128;28;20036;-72
2022/07/21 07:50:44;;;;;;;1999.90;999.90;;;27.00;97.70;;;;;;5054301;28;20040;-72
2022/07/21 07:53:10;;;;;;;1999.90;999.90;;;25.80;97.60;;;;;;5054241;28;20106;-73
2022/07/21 07:55:36;;;;;;;1999.90;999.90;;;23.80;99.70;;;;;;5053575;28;20468;-74
2022/07/21 07:58:02;;;;;;;1999.90;999.90;;;22.60;99.90;;;;;;5053985;28;20481;-73
2022/07/21 08:00:28;;;;;;;1999.90;999.90;;;21.80;99.90;;;;;;5045792;28;20040;-74
2022/07/21 08:02:53;;;;;;;1999.90;999.90;;;21.20;99.90;;;;;;5053687;28;20025;-71
2022/07/21 08:05:19;;;;;;;1999.90;999.90;;;21.00;99.90;;;;;;5050531;28;20021;-72
2022/07/21 08:07:45;;;;;;;1999.90;999.90;;;21.00;99.90;;;;;;5053811;28;20032;-72
2022/07/21 08:10:12;;;;;;;1999.90;999.90;;;21.10;99.90;;;;;;5060456;28;20471;-72
2022/07/21 08:12:38;;;;;;;1999.90;999.90;;;21.20;99.90;;;;;;5035530;28;20457;-72
2022/07/21 08:15:05;;;;;;;1999.90;999.90;;;21.40;99.90;;;;;;5054119;28;20017;-72
2022/07/21 08:17:31;;;;;;;1999.90;999.90;;;21.30;99.90;;;;;;5053686;28;20029;-74
2022/07/21 08:19:57;;;;;;;1999.90;999.90;;;21.30;99.90;;;;;;5054260;28;20020;-74
2022/07/21 08:22:23;;;;;;;1999.90;999.90;;;21.20;99.90;;;;;;5053825;28;20383;-73
2022/07/21 08:24:48;;;;;;;1999.90;999.90;;;21.20;99.90;;;;;;5053981;28;20032;-74
2022/07/21 08:27:14;;;;;;;1999.90;999.90;;;21.30;99.90;;;;;;5060620;28;20151;-72
2022/07/21 08:29:40;;;;;;;1999.90;999.90;;;21.50;99.90;;;;;;5054068;28;20029;-71
2022/07/21 08:32:05;;;;;;;1999.90;999.90;;;21.50;99.90;;;;;;5053696;28;20388;-72
2022/07/21 08:34:31;;;;;;;1999.90;999.90;;;21.70;99.90;;;;;;5053083;28;20146;-72
2022/07/21 08:36:57;;;;;;;1999.90;999.90;;;21.80;99.90;;;;;;5054003;28;20450;-74
2022/07/21 08:39:23;;;;;;;1999.90;999.90;;;21.70;99.90;;;;;;5053339;28;20029;-74
2022/07/21 08:41:51;;;;;;;1999.90;999.90;;;21.90;99.90;;;;;;5053747;28;20021;-72
2022/07/21 08:44:16;;;;;;;1999.90;999.90;;;22.20;99.90;;;;;;5046535;28;20179;-74
2022/07/21 08:46:42;;;;;;;1999.90;999.90;;;22.30;99.90;;;;;;5052008;28;20554;-73
2022/07/21 08:49:11;;;;;;;1999.90;999.90;;;22.70;99.90;;;;;;5053278;28;20036;-74
2022/07/21 08:51:37;;;;;;;1999.90;999.90;;;22.40;99.90;;;;;;5054089;28;20095;-74
2022/07/21 08:54:04;;;;;;;1999.90;999.90;;;22.20;99.90;;;;;;5053054;28;20108;-72
2022/07/21 08:56:30;;;;;;;1999.90;999.90;;;22.30;99.90;;;;;;5053080;28;20111;-72
2022/07/21 08:58:55;;;;;;;1999.90;999.90;;;22.50;99.90;;;;;;5054145;28;20567;-74
2022/07/21 09:01:24;;;;;;;1999.90;999.90;;;22.80;99.90;;;;;;5056832;28;20107;-72
2022/07/21 09:03:51;;;;;;;1999.90;999.90;;;22.90;99.90;;;;;;5056795;28;20083;-74
2022/07/21 09:06:17;;;;;;;1999.90;999.90;;;23.10;99.90;;;;;;5053313;28;20035;-72
2022/07/21 09:08:51;;;;;;;1999.90;999.90;;;23.40;99.90;;;;;;5057581;28;20395;-72
2022/07/21 09:11:21;;;;;;;1999.90;999.90;;;23.50;99.90;;;;;;5052646;28;20021;-72
2022/07/21 09:14:06;;;;;;;1999.90;999.90;;;23.10;99.90;;;;;;5052083;28;20027;-73
2022/07/21 09:16:40;;;;;;;1999.90;999.90;;;23.20;99.90;;;;;;5063352;28;20109;-72
2022/07/21 09:19:06;;;;;;;1999.90;999.90;;;23.40;99.90;;;;;;5063413;28;20032;-72
2022/07/21 09:21:34;;;;;;;1999.90;999.90;;;23.70;99.90;;;;;;5051924;28;20031;-72
2022/07/21 09:24:13;;;;;;;1999.90;999.90;;;23.90;99.90;;;;;;5052920;28;20029;-74
2022/07/21 09:26:57;;;;;;;1999.90;999.90;;;24.50;99.90;;;;;;5052776;28;20028;-72
2022/07/21 09:29:23;;;;;;;1999.90;999.90;;;25.10;99.10;;;;;;5052023;28;20152;-73
2022/07/21 09:31:49;;;;;;;1999.90;999.90;;;25.80;98.00;;;;;;5050918;28;20132;-74
2022/07/21 09:34:15;;;;;;;1999.90;999.90;;;25.80;98.10;;;;;;5045221;28;20502;-73
2022/07/21 09:36:55;;;;;;;1999.90;999.90;;;26.50;97.00;;;;;;5051825;28;20017;-73
2022/07/21 09:39:44;;;;;;;1999.90;999.90;;;30.80;92.90;;;;;;5052102;28;20047;-73
2022/07/21 09:42:15;;;;;;;1999.90;999.90;;;30.20;91.80;;;;;;5041326;28;20025;-72
2022/07/21 09:44:50;;;;;;;1999.90;999.90;;;28.70;93.50;;;;;;5051054;28;20483;-72
2022/07/21 09:47:18;;;;;;;1999.90;999.90;;;27.10;94.70;;;;;;5054523;28;20032;-72
2022/07/21 09:49:45;;;;;;;1999.90;999.90;;;26.10;95.10;;;;;;5052305;28;20055;-72
2022/07/21 09:52:24;;;;;;;1999.90;999.90;;;25.20;95.90;;;;;;5052051;28;20055;-74
2022/07/21 09:54:51;;;;;;;1999.90;999.90;;;24.70;97.20;;;;;;5052081;28;20122;-74
2022/07/21 09:57:18;;;;;;;1999.90;999.90;;;24.10;97.90;;;;;;5062859;28;20036;-74
2022/07/21 09:59:45;;;;;;;1999.90;999.90;;;23.60;98.40;;;;;;5054584;28;20025;-72
2022/07/21 10:02:20;;;;;;;1999.90;999.90;;;23.30;99.10;;;;;;5052153;28;20013;-73
2022/07/21 10:04:51;;;;;;;1999.90;999.90;;;23.10;99.90;;;;;;5052163;28;20032;-74
2022/07/21 10:07:18;;;;;;;1999.90;999.90;;;23.20;99.70;;;;;;5052321;28;20024;-72
2022/07/21 10:09:44;;;;;;;1999.90;999.90;;;23.50;99.80;;;;;;5059473;28;20029;-74
2022/07/21 10:12:10;;;;;;;1999.90;999.90;;;23.40;98.70;;;;;;5052202;28;20017;-72
2022/07/21 10:14:36;;;;;;;1999.90;999.90;;;23.40;98.70;;;;;;5051388;28;20039;-74
2022/07/21 10:17:02;;;;;;;1999.90;999.90;;;23.30;99.00;;;;;;5051495;28;20029;-74
2022/07/21 10:19:37;;;;;;;1999.90;999.90;;;23.30;99.30;;;;;;5051863;28;20037;-74
2022/07/21 10:22:41;;;;;;;1999.90;999.90;;;23.40;99.00;;;;;;5051928;28;20442;-71
2022/07/21 10:25:08;;;;;;;1999.90;999.90;;;23.30;99.20;;;;;;5050532;28;20048;-72
2022/07/21 10:27:33;;;;;;;1999.90;999.90;;;23.50;99.10;;;;;;5052016;28;20025;-72
2022/07/21 10:30:02;;;;;;;1999.90;999.90;;;24.00;98.60;;;;;;5052148;28;20095;-74
2022/07/21 10:32:30;;;;;;;1999.90;999.90;;;24.50;97.90;;;;;;5051547;28;20051;-74
2022/07/21 10:34:58;;;;;;;1999.90;999.90;;;24.70;97.30;;;;;;5051218;28;20048;-74
2022/07/21 10:37:39;;;;;;;1999.90;999.90;;;24.60;97.30;;;;;;5052358;28;20428;-72
2022/07/21 10:40:25;;;;;;;1999.90;999.90;;;24.90;96.80;;;;;;5035427;28;20119;-74
2022/07/21 10:43:00;;;;;;;1999.90;999.90;;;25.80;95.90;;;;;;5040028;28;20064;-74
2022/07/21 10:45:36;;;;;;;1999.90;999.90;;;28.20;93.80;;;;;;5055908;28;20453;-75
2022/07/21 10:48:04;;;;;;;1999.90;999.90;;;28.80;92.80;;;;;;5037576;28;20083;-75
2022/07/21 10:50:41;;;;;;;1999.90;999.90;;;28.40;92.50;;;;;;5055491;28;20021;-73
2022/07/21 10:53:18;;;;;;;1999.90;999.90;;;29.00;92.40;;;;;;5056032;28;20021;-71
2022/07/21 10:55:54;;;;;;;1999.90;999.90;;;28.90;92.30;;;;;;5055742;28;20029;-73
2022/07/21 10:58:27;;;;;;;1999.90;999.90;;;31.10;90.80;;;;;;5055664;28;20036;-71
2022/07/21 11:00:55;;;;;;;1999.90;999.90;;;31.00;89.40;;;;;;5055848;28;20484;-74
2022/07/21 11:03:25;;;;;;;1999.90;999.90;;;31.10;90.10;;;;;;5058933;28;20017;-72
2022/07/21 11:06:05;;;;;;;1999.90;999.90;;;29.70;91.00;;;;;;5063411;28;20025;-71
2022/07/21 11:08:41;;;;;;;1999.90;999.90;;;28.30;92.20;;;;;;5057430;28;20028;-73
2022/07/21 11:11:10;;;;;;;1999.90;999.90;;;27.70;92.60;;;;;;5064115;28;20025;-72
2022/07/21 11:14:06;;;;;;;1999.90;999.90;;;27.00;93.30;;;;;;5061748;28;20158;-72
2022/07/21 11:16:52;;;;;;;1999.90;999.90;;;27.20;93.30;;;;;;5055741;28;20114;-72
2022/07/21 11:19:46;;;;;;;1999.90;999.90;;;29.40;91.40;;;;;;5051358;28;20021;-72
2022/07/21 11:22:26;;;;;;;1999.90;999.90;;;29.50;90.90;;;;;;5064567;28;20028;-73
2022/07/21 11:25:03;;;;;;;1999.90;999.90;;;29.30;91.70;;;;;;5053089;28;20103;-73
2022/07/21 11:27:31;;;;;;;1999.90;999.90;;;29.30;91.20;;;;;;5053263;28;20534;-74
2022/07/21 11:29:59;;;;;;;1999.90;999.90;;;30.30;90.50;;;;;;5054395;28;20032;-71
2022/07/21 11:32:26;;;;;;;1999.90;999.90;;;30.00;90.10;;;;;;5055029;28;20025;-72
2022/07/21 11:34:55;;;;;;;1999.90;999.90;;;30.30;90.40;;;;;;5036223;28;20452;-74
2022/07/21 11:37:40;;;;;;;1999.90;999.90;;;30.40;90.40;;;;;;5051168;28;20079;-73
2022/07/21 11:40:17;;;;;;;1999.90;999.90;;;30.50;89.60;;;;;;5054971;28;20025;-72
2022/07/21 11:42:45;;;;;;;1999.90;999.90;;;30.10;90.00;;;;;;5054909;28;20025;-72
2022/07/21 11:45:12;;;;;;;1999.90;999.90;;;29.60;90.30;;;;;;5054930;28;20056;-73
2022/07/21 11:47:38;;;;;;;1999.90;999.90;;;29.80;90.10;;;;;;5054443;28;20545;-73
2022/07/21 11:50:10;;;;;;;1999.90;999.90;;;29.30;90.50;;;;;;5056535;28;20021;-73
2022/07/21 11:52:38;;;;;;;1999.90;999.90;;;28.40;92.10;;;;;;5054485;28;20108;-73
2022/07/21 11:55:05;;;;;;;1999.90;999.90;;;28.60;91.90;;;;;;5054494;28;20024;-73
2022/07/21 11:57:31;;;;;;;1999.90;999.90;;;28.20;92.10;;;;;;5054653;28;20032;-73
2022/07/21 11:59:58;;;;;;;1999.90;999.90;;;28.10;91.90;;;;;;5054561;28;20033;-74
2022/07/21 12:02:29;;;;;;;1999.90;999.90;;;27.30;92.90;;;;;;5034772;28;20056;-71
2022/07/21 12:04:56;;;;;;;1999.90;999.90;;;26.60;93.40;;;;;;5053807;28;20028;-73